createdAt,value
2022-12-06T00:01:29.272Z,3.57
2022-12-06T00:03:57.967Z,3.50
2022-12-06T00:06:28.385Z,3.47
2022-12-06T00:08:55.730Z,3.45
2022-12-06T00:11:33.698Z,3.43
2022-12-06T00:14:03.412Z,3.35
2022-12-06T00:16:31.116Z,3.33
2022-12-06T00:18:58.459Z,3.32
2022-12-06T00:21:28.482Z,3.31
2022-12-06T00:24:00.641Z,3.34
2022-12-06T00:26:28.082Z,3.32
2022-12-06T00:28:56.949Z,3.35
2022-12-06T00:31:25.782Z,3.36
2022-12-06T00:33:52.597Z,3.35
2022-12-06T00:36:21.617Z,3.37
2022-12-06T00:38:48.845Z,3.40
2022-12-06T00:41:17.981Z,3.40
2022-12-06T00:43:45.409Z,3.43
2022-12-06T00:46:15.533Z,3.42
2022-12-06T00:48:42.419Z,3.34
2022-12-06T00:51:08.913Z,3.46
2022-12-06T00:53:35.757Z,3.46
2022-12-06T00:56:02.303Z,3.51
2022-12-06T00:58:28.873Z,3.50
2022-12-06T01:00:55.425Z,3.49
2022-12-06T01:03:22.231Z,3.53
2022-12-06T01:05:50.995Z,3.49
2022-12-06T01:08:18.799Z,3.51
2022-12-06T01:10:54.273Z,3.52
2022-12-06T01:13:20.842Z,3.48
2022-12-06T01:15:48.291Z,3.50
2022-12-06T01:18:14.937Z,3.50
2022-12-06T01:20:41.393Z,3.52
2022-12-06T01:23:07.871Z,3.53
2022-12-06T01:25:36.117Z,3.53
2022-12-06T01:28:03.247Z,3.53
2022-12-06T01:30:29.817Z,3.55
2022-12-06T01:32:56.325Z,3.52
2022-12-06T01:35:23.029Z,3.46
2022-12-06T01:37:49.434Z,3.52
2022-12-06T01:40:15.903Z,3.49
2022-12-06T01:42:42.357Z,3.47
2022-12-06T01:45:09.914Z,3.45
2022-12-06T01:47:42.558Z,3.41
2022-12-06T01:50:22.456Z,3.43
2022-12-06T01:52:59.300Z,3.46
2022-12-06T01:55:30.408Z,3.44
2022-12-06T01:58:00.436Z,3.34
2022-12-06T02:00:26.868Z,3.35
2022-12-06T02:02:56.313Z,3.36
2022-12-06T02:05:22.772Z,3.39
2022-12-06T02:07:49.359Z,3.41
2022-12-06T02:10:15.842Z,3.43
2022-12-06T02:12:42.245Z,3.44
2022-12-06T02:15:09.390Z,3.45
2022-12-06T02:17:47.238Z,3.47
2022-12-06T02:20:29.577Z,3.46
2022-12-06T02:23:10.084Z,3.46
2022-12-06T02:25:54.493Z,3.48
2022-12-06T02:29:03.695Z,3.44
2022-12-06T02:31:45.328Z,3.45
2022-12-06T02:34:20.536Z,3.44
2022-12-06T02:36:56.417Z,3.45
2022-12-06T02:39:34.620Z,3.43
2022-12-06T02:42:09.243Z,3.45
2022-12-06T02:44:42.264Z,3.43
2022-12-06T02:47:11.914Z,3.43
2022-12-06T02:49:46.385Z,3.42
2022-12-06T02:52:21.724Z,3.43
2022-12-06T02:54:49.476Z,3.43
2022-12-06T02:57:16.024Z,3.45
2022-12-06T02:59:53.474Z,3.46
2022-12-06T03:02:22.004Z,3.47
2022-12-06T03:05:03.271Z,3.47
2022-12-06T03:07:47.210Z,3.46
2022-12-06T03:10:38.314Z,3.46
2022-12-06T03:13:16.397Z,3.45
2022-12-06T03:15:42.803Z,3.43
2022-12-06T03:18:18.383Z,3.41
2022-12-06T03:20:51.395Z,3.37
2022-12-06T03:23:24.109Z,3.34
2022-12-06T03:25:52.824Z,3.32
2022-12-06T03:28:21.603Z,3.30
2022-12-06T03:30:51.448Z,3.25
2022-12-06T03:33:22.605Z,3.20
2022-12-06T03:35:51.789Z,3.14
2022-12-06T03:38:29.891Z,3.11
2022-12-06T03:40:59.983Z,3.11
2022-12-06T03:43:26.498Z,3.09
2022-12-06T03:45:59.526Z,3.04
2022-12-06T03:48:40.684Z,3.01
2022-12-06T03:51:10.734Z,2.98
2022-12-06T03:53:46.663Z,3.02
2022-12-06T03:56:13.137Z,2.98
2022-12-06T03:58:39.657Z,2.94
2022-12-06T04:01:06.095Z,2.86
2022-12-06T04:03:32.558Z,2.80
2022-12-06T04:06:02.103Z,2.70
2022-12-06T04:08:28.626Z,2.70
2022-12-06T04:10:55.002Z,2.67
2022-12-06T04:13:21.481Z,2.65
2022-12-06T04:15:48.032Z,2.57
2022-12-06T04:18:15.110Z,2.46
2022-12-06T04:21:20.808Z,2.42
2022-12-06T04:23:50.411Z,2.35
2022-12-06T04:26:20.141Z,2.35
2022-12-06T04:29:05.866Z,2.28
2022-12-06T04:31:51.159Z,2.22
2022-12-06T04:34:36.408Z,2.19
2022-12-06T04:37:22.315Z,2.20
2022-12-06T04:39:48.780Z,2.18
2022-12-06T04:42:34.364Z,2.24
2022-12-06T04:45:00.805Z,2.29
2022-12-06T04:47:27.250Z,2.34
2022-12-06T04:49:53.664Z,2.40
2022-12-06T04:52:20.171Z,2.26
2022-12-06T04:54:47.453Z,2.40
2022-12-06T04:57:15.857Z,2.41
2022-12-06T04:59:44.201Z,2.45
2022-12-06T05:02:15.104Z,2.48
2022-12-06T05:04:41.549Z,2.51
2022-12-06T05:07:08.356Z,2.56
2022-12-06T05:09:34.800Z,2.54
2022-12-06T05:12:01.218Z,2.53
2022-12-06T05:14:27.599Z,2.46
2022-12-06T05:16:54.028Z,2.35
2022-12-06T05:19:20.477Z,2.30
2022-12-06T05:21:47.183Z,2.20
2022-12-06T05:24:14.307Z,2.14
2022-12-06T05:26:41.406Z,2.17
2022-12-06T05:29:07.829Z,2.13
2022-12-06T05:31:34.407Z,2.14
2022-12-06T05:34:00.977Z,2.08
2022-12-06T05:36:28.204Z,2.07
2022-12-06T05:38:56.265Z,2.01
2022-12-06T05:41:23.576Z,1.97
2022-12-06T05:43:50.301Z,2.03
2022-12-06T05:46:17.366Z,2.00
2022-12-06T05:48:44.842Z,1.98
2022-12-06T05:51:11.458Z,1.98
2022-12-06T05:53:37.848Z,1.88
2022-12-06T05:56:06.355Z,1.86
2022-12-06T05:58:32.999Z,1.90
2022-12-06T06:00:59.643Z,1.91
2022-12-06T06:03:26.112Z,1.97
2022-12-06T06:05:58.871Z,1.97
2022-12-06T06:08:26.209Z,1.88
2022-12-06T06:10:52.894Z,1.65
2022-12-06T06:13:19.437Z,1.52
2022-12-06T06:15:45.918Z,1.66
2022-12-06T06:18:12.400Z,1.53
2022-12-06T06:20:38.867Z,1.49
2022-12-06T06:23:05.392Z,1.46
2022-12-06T06:25:31.877Z,1.42
2022-12-06T06:27:59.437Z,1.44
2022-12-06T06:30:25.873Z,1.36
2022-12-06T06:32:52.341Z,1.29
2022-12-06T06:35:18.806Z,1.20
2022-12-06T06:37:46.028Z,1.23
2022-12-06T06:40:12.582Z,1.25
2022-12-06T06:42:39.437Z,1.13
2022-12-06T06:45:06.548Z,1.12
2022-12-06T06:47:34.079Z,1.11
2022-12-06T06:50:00.958Z,1.09
2022-12-06T06:52:28.093Z,0.95
2022-12-06T06:54:54.574Z,0.88
2022-12-06T06:57:21.203Z,0.98
2022-12-06T06:59:47.743Z,1.01
2022-12-06T07:02:15.450Z,0.96
2022-12-06T07:04:42.417Z,0.84
2022-12-06T07:07:09.090Z,0.74
2022-12-06T07:09:35.563Z,0.86
2022-12-06T07:12:02.171Z,0.81
2022-12-06T07:14:28.719Z,0.71
2022-12-06T07:16:55.201Z,0.81
2022-12-06T07:19:21.987Z,0.91
2022-12-06T07:21:49.040Z,0.89
2022-12-06T07:24:15.502Z,0.72
2022-12-06T07:26:41.908Z,0.87
2022-12-06T07:29:08.381Z,0.79
2022-12-06T07:31:35.468Z,0.73
2022-12-06T07:34:02.585Z,0.67
2022-12-06T07:36:30.305Z,0.66
2022-12-06T07:38:58.156Z,0.61
2022-12-06T07:41:45.451Z,0.53
2022-12-06T07:44:32.199Z,0.63
2022-12-06T07:46:58.940Z,0.54
2022-12-06T07:49:25.472Z,0.55
2022-12-06T07:51:53.843Z,0.56
2022-12-06T07:54:20.420Z,0.52
2022-12-06T07:56:46.827Z,0.47
2022-12-06T07:59:13.311Z,0.58
2022-12-06T08:01:40.303Z,0.67
2022-12-06T08:04:07.839Z,0.69
2022-12-06T08:06:36.149Z,0.81
2022-12-06T08:09:04.303Z,0.79
2022-12-06T08:11:30.674Z,0.87
2022-12-06T08:13:57.108Z,0.93
2022-12-06T08:16:23.699Z,1.01
2022-12-06T08:18:50.235Z,1.00
2022-12-06T08:21:16.713Z,1.16
2022-12-06T08:23:43.122Z,1.30
2022-12-06T08:26:13.643Z,1.42
2022-12-06T08:28:43.261Z,1.49
2022-12-06T08:31:18.337Z,1.60
2022-12-06T08:33:45.281Z,1.77
2022-12-06T08:36:14.969Z,1.74
2022-12-06T08:38:41.547Z,1.88
2022-12-06T08:41:27.435Z,1.95
2022-12-06T08:43:54.908Z,2.02
2022-12-06T08:46:21.726Z,1.99
2022-12-06T08:48:48.305Z,2.06
2022-12-06T08:51:14.953Z,2.09
2022-12-06T08:53:41.512Z,2.10
2022-12-06T08:56:08.507Z,2.19
2022-12-06T08:58:35.200Z,2.27
2022-12-06T09:01:01.808Z,2.33
2022-12-06T09:03:28.294Z,2.40
2022-12-06T09:05:54.670Z,2.48
2022-12-06T09:08:21.120Z,2.56
2022-12-06T09:10:47.655Z,2.64
2022-12-06T09:13:14.075Z,2.66
2022-12-06T09:15:40.578Z,2.68
2022-12-06T09:18:07.037Z,2.70
2022-12-06T09:20:33.496Z,2.71
2022-12-06T09:22:59.924Z,2.73
2022-12-06T09:25:26.359Z,2.74
2022-12-06T09:27:53.552Z,2.76
2022-12-06T09:30:20.242Z,2.72
2022-12-06T09:32:48.369Z,2.80
2022-12-06T09:35:16.008Z,2.81
2022-12-06T09:37:43.885Z,2.80
2022-12-06T09:40:20.155Z,2.87
2022-12-06T09:42:52.428Z,3.03
2022-12-06T09:45:31.303Z,2.99
2022-12-06T09:48:03.418Z,2.90
2022-12-06T09:50:57.346Z,2.85
2022-12-06T09:53:41.406Z,2.81
2022-12-06T09:56:22.826Z,2.85
2022-12-06T09:59:02.598Z,2.92
2022-12-06T10:01:36.841Z,2.99
2022-12-06T10:04:22.564Z,3.07
2022-12-06T10:07:06.831Z,3.12
2022-12-06T10:10:00.206Z,3.21
2022-12-06T10:12:47.039Z,3.46
2022-12-06T10:15:16.232Z,3.66
2022-12-06T10:18:08.296Z,3.96
2022-12-06T10:20:59.607Z,4.52
2022-12-06T10:23:45.555Z,4.71
2022-12-06T10:26:17.819Z,4.70
2022-12-06T10:28:48.266Z,4.96
2022-12-06T10:31:23.996Z,5.15
2022-12-06T10:34:23.084Z,5.24
2022-12-06T10:36:58.504Z,5.20
2022-12-06T10:39:33.360Z,5.41
2022-12-06T10:42:11.935Z,5.98
2022-12-06T10:44:45.991Z,6.91
2022-12-06T10:47:21.750Z,7.54
2022-12-06T10:49:58.324Z,7.96
2022-12-06T10:52:34.932Z,8.65
2022-12-06T10:55:10.335Z,8.35
2022-12-06T10:57:44.712Z,7.87
2022-12-06T11:00:25.899Z,8.09
2022-12-06T11:03:19.189Z,8.53
2022-12-06T11:06:01.395Z,8.85
2022-12-06T11:08:39.874Z,9.43
2022-12-06T11:11:15.644Z,10.26
2022-12-06T11:13:49.715Z,10.48
2022-12-06T11:16:20.225Z,10.18
2022-12-06T11:18:47.980Z,9.60
2022-12-06T11:21:26.601Z,9.17
2022-12-06T11:24:06.697Z,9.04
2022-12-06T11:26:44.447Z,8.96
2022-12-06T11:29:13.778Z,8.83
2022-12-06T11:31:48.146Z,8.39
2022-12-06T11:34:23.411Z,8.12
2022-12-06T11:36:58.201Z,7.61
2022-12-06T11:39:27.044Z,7.19
2022-12-06T11:41:56.554Z,6.71
2022-12-06T11:44:26.771Z,6.27
2022-12-06T11:47:00.182Z,6.06
2022-12-06T11:49:35.314Z,5.89
2022-12-06T11:52:07.545Z,5.76
2022-12-06T11:54:41.666Z,5.83
2022-12-06T11:57:23.712Z,5.78
2022-12-06T12:00:14.027Z,5.85
2022-12-06T12:02:42.516Z,5.74
2022-12-06T12:05:10.996Z,5.79
2022-12-06T12:07:41.052Z,5.76
2022-12-06T12:10:25.177Z,5.66
2022-12-06T12:13:10.630Z,5.74
2022-12-06T12:15:38.062Z,5.75
2022-12-06T12:18:06.738Z,5.72
2022-12-06T12:20:45.895Z,5.77
2022-12-06T12:23:42.072Z,5.90
2022-12-06T12:26:14.650Z,5.88
2022-12-06T12:28:46.321Z,5.88
2022-12-06T12:31:22.080Z,5.80
2022-12-06T12:33:49.180Z,5.83
2022-12-06T12:36:28.316Z,5.76
2022-12-06T12:39:03.275Z,5.75
2022-12-06T12:41:39.313Z,5.72
2022-12-06T12:44:38.162Z,5.73
2022-12-06T12:47:19.911Z,5.73
2022-12-06T12:50:05.514Z,5.67
2022-12-06T12:52:37.502Z,5.69
2022-12-06T12:55:21.822Z,5.73
2022-12-06T12:57:50.049Z,5.64
2022-12-06T13:00:22.089Z,5.63
2022-12-06T13:02:57.248Z,5.57
2022-12-06T13:05:33.868Z,5.60
2022-12-06T13:08:09.694Z,5.54
2022-12-06T13:10:39.121Z,5.60
2022-12-06T13:13:14.499Z,5.66
2022-12-06T13:15:47.733Z,5.63
2022-12-06T13:18:27.720Z,5.74
2022-12-06T13:20:58.078Z,5.73
2022-12-06T13:23:29.251Z,5.76
2022-12-06T13:26:06.855Z,5.80
2022-12-06T13:28:40.399Z,5.79
2022-12-06T13:31:13.922Z,5.76
2022-12-06T13:33:56.768Z,5.73
2022-12-06T13:36:24.391Z,5.67
2022-12-06T13:38:50.905Z,5.66
2022-12-06T13:41:49.260Z,5.65
2022-12-06T13:44:42.068Z,5.64
2022-12-06T13:47:26.498Z,5.56
2022-12-06T13:49:57.717Z,5.49
2022-12-06T13:52:56.032Z,5.56
2022-12-06T13:55:25.585Z,5.56
2022-12-06T13:57:54.993Z,5.47
2022-12-06T14:00:31.649Z,5.47
2022-12-06T14:03:13.514Z,5.49
2022-12-06T14:08:43.715Z,5.42
2022-12-06T14:11:16.055Z,5.44
2022-12-06T14:13:46.193Z,5.43
2022-12-06T14:16:22.865Z,5.36
2022-12-06T14:18:50.370Z,5.46
2022-12-06T14:21:39.159Z,5.43
2022-12-06T14:24:05.948Z,5.44
2022-12-06T14:26:35.106Z,5.48
2022-12-06T14:29:01.991Z,5.49
2022-12-06T14:31:34.213Z,5.49
2022-12-06T14:34:00.694Z,5.45
2022-12-06T14:36:33.631Z,5.47
2022-12-06T14:39:03.744Z,5.48
2022-12-06T14:41:56.026Z,5.45
2022-12-06T14:44:32.590Z,5.42
2022-12-06T14:46:59.369Z,5.46
2022-12-06T14:49:46.989Z,5.42
2022-12-06T14:52:56.697Z,5.43
2022-12-06T14:55:23.609Z,5.37
2022-12-06T14:58:17.636Z,5.33
2022-12-06T15:01:18.945Z,5.29
2022-12-06T15:04:00.559Z,5.32
2022-12-06T15:06:29.316Z,5.27
2022-12-06T15:08:58.519Z,5.31
2022-12-06T15:11:57.479Z,5.29
2022-12-06T15:14:29.638Z,5.35
2022-12-06T15:17:03.967Z,5.36
2022-12-06T15:19:36.176Z,5.34
2022-12-06T15:22:04.188Z,5.32
2022-12-06T15:24:31.100Z,5.27
2022-12-06T15:26:57.516Z,5.29
2022-12-06T15:29:24.320Z,5.28
2022-12-06T15:31:53.686Z,5.29
2022-12-06T15:34:37.029Z,5.30
2022-12-06T15:37:36.950Z,5.24
2022-12-06T15:39:50.326Z,5.28
2022-12-06T15:42:22.541Z,5.27
2022-12-06T15:44:50.304Z,5.23
2022-12-06T15:47:19.657Z,5.17
2022-12-06T15:49:46.968Z,5.13
2022-12-06T15:52:18.480Z,5.07
2022-12-06T15:54:45.481Z,5.05
2022-12-06T15:57:12.070Z,5.04
2022-12-06T15:59:38.572Z,5.06
2022-12-06T16:02:15.347Z,5.13
2022-12-06T16:04:42.162Z,5.13
2022-12-06T16:07:08.787Z,5.12
2022-12-06T16:09:35.353Z,5.08
2022-12-06T16:12:01.744Z,5.07
2022-12-06T16:14:28.190Z,5.08
2022-12-06T16:16:54.714Z,5.01
2022-12-06T16:19:21.278Z,4.94
2022-12-06T16:21:56.237Z,4.90
2022-12-06T16:24:22.893Z,4.88
2022-12-06T16:26:49.688Z,4.83
2022-12-06T16:29:24.707Z,4.85
2022-12-06T16:31:52.195Z,4.87
2022-12-06T16:34:18.836Z,4.72
2022-12-06T16:37:03.235Z,4.86
2022-12-06T16:39:31.912Z,4.90
2022-12-06T16:41:58.424Z,4.91
2022-12-06T16:44:25.195Z,4.94
2022-12-06T16:46:52.072Z,4.94
2022-12-06T16:52:10.047Z,4.90
2022-12-06T16:54:38.938Z,4.92
2022-12-06T16:57:05.395Z,4.87
2022-12-06T16:59:31.912Z,4.87
2022-12-06T17:01:59.414Z,4.83
2022-12-06T17:04:26.727Z,4.84
2022-12-06T17:06:53.121Z,4.84
2022-12-06T17:09:19.830Z,4.78
2022-12-06T17:12:07.142Z,4.80
2022-12-06T17:14:35.953Z,4.72
2022-12-06T17:17:04.101Z,4.65
2022-12-06T17:19:33.054Z,4.64
2022-12-06T17:22:06.132Z,4.55
2022-12-06T17:24:33.548Z,4.50
2022-12-06T17:27:00.198Z,4.55
2022-12-06T17:29:27.007Z,4.55
2022-12-06T17:31:53.636Z,4.53
2022-12-06T17:34:21.872Z,4.56
2022-12-06T17:36:49.191Z,4.54
2022-12-06T17:39:18.346Z,4.56
2022-12-06T17:42:03.531Z,4.56
2022-12-06T17:44:30.416Z,4.55
2022-12-06T17:46:56.833Z,4.56
2022-12-06T17:49:25.310Z,4.57
2022-12-06T17:51:52.225Z,4.58
2022-12-06T17:54:19.544Z,4.57
2022-12-06T17:56:48.024Z,4.51
2022-12-06T17:59:18.177Z,4.50
2022-12-06T18:02:13.584Z,4.47
2022-12-06T18:04:31.480Z,4.43
2022-12-06T18:06:58.134Z,4.40
2022-12-06T18:09:24.626Z,4.43
2022-12-06T18:11:51.275Z,4.41
2022-12-06T18:14:17.722Z,4.37
2022-12-06T18:16:48.433Z,4.36
2022-12-06T18:19:18.167Z,4.31
2022-12-06T18:21:45.492Z,4.31
2022-12-06T18:24:24.749Z,4.27
2022-12-06T18:26:55.255Z,4.19
2022-12-06T18:29:23.392Z,4.16
2022-12-06T18:31:51.121Z,4.08
2022-12-06T18:34:17.907Z,4.06
2022-12-06T18:36:44.487Z,4.06
2022-12-06T18:39:16.389Z,4.05
2022-12-06T18:41:44.511Z,4.01
2022-12-06T18:44:12.519Z,3.94
2022-12-06T18:46:41.533Z,4.03
2022-12-06T18:49:09.968Z,4.09
2022-12-06T18:51:38.415Z,4.17
2022-12-06T18:54:05.479Z,4.20
2022-12-06T18:56:33.858Z,4.24
2022-12-06T18:59:05.942Z,4.27
2022-12-06T19:01:34.899Z,4.29
2022-12-06T19:04:03.419Z,4.32
2022-12-06T19:06:32.876Z,4.37
2022-12-06T19:09:06.620Z,4.36
2022-12-06T19:11:37.091Z,4.35
2022-12-06T19:14:04.400Z,4.33
2022-12-06T19:16:40.738Z,4.32
2022-12-06T19:19:15.878Z,4.28
2022-12-06T19:21:43.907Z,4.25
2022-12-06T19:24:12.893Z,4.22
2022-12-06T19:26:39.891Z,4.19
2022-12-06T19:29:06.446Z,4.19
2022-12-06T19:31:33.992Z,4.23
2022-12-06T19:34:00.512Z,4.23
2022-12-06T19:36:29.178Z,4.30
2022-12-06T19:38:56.873Z,4.32
2022-12-06T19:41:23.971Z,4.35
2022-12-06T19:44:09.961Z,4.26
2022-12-06T19:46:36.922Z,4.39
2022-12-06T19:49:06.031Z,4.41
2022-12-06T19:51:35.374Z,4.42
2022-12-06T19:54:02.028Z,4.32
2022-12-06T19:56:28.531Z,4.37
2022-12-06T19:58:57.345Z,4.39
2022-12-06T20:01:25.400Z,4.34
2022-12-06T20:03:53.143Z,4.33
2022-12-06T20:06:22.310Z,4.28
2022-12-06T20:08:49.952Z,4.25
2022-12-06T20:11:38.552Z,4.22
2022-12-06T20:14:08.280Z,4.19
2022-12-06T20:16:35.087Z,4.13
2022-12-06T20:19:01.668Z,4.08
2022-12-06T20:21:28.089Z,4.04
2022-12-06T20:23:54.494Z,3.91
2022-12-06T20:26:21.009Z,4.04
2022-12-06T20:28:47.970Z,4.13
2022-12-06T20:31:20.395Z,4.21
2022-12-06T20:33:47.123Z,4.28
2022-12-06T20:36:16.973Z,4.38
2022-12-06T20:38:43.542Z,4.45
2022-12-06T20:41:15.306Z,4.48
2022-12-06T20:43:44.878Z,4.48
2022-12-06T20:46:17.302Z,4.48
2022-12-06T20:48:45.540Z,4.47
2022-12-06T20:51:15.371Z,4.48
2022-12-06T20:53:42.158Z,4.50
2022-12-06T20:56:10.905Z,4.51
2022-12-06T20:58:37.750Z,4.52
2022-12-06T21:01:05.297Z,4.54
2022-12-06T21:03:32.747Z,4.51
2022-12-06T21:06:05.096Z,4.48
2022-12-06T21:08:31.799Z,4.48
2022-12-06T21:11:22.489Z,4.51
2022-12-06T21:13:45.711Z,4.48
2022-12-06T21:16:18.236Z,4.47
2022-12-06T21:18:45.851Z,4.45
2022-12-06T21:21:24.870Z,4.38
2022-12-06T21:23:51.517Z,4.36
2022-12-06T21:26:18.419Z,4.29
2022-12-06T21:28:44.905Z,4.30
2022-12-06T21:31:11.722Z,4.22
2022-12-06T21:33:38.308Z,4.24
2022-12-06T21:36:07.077Z,4.15
2022-12-06T21:38:33.625Z,4.06
2022-12-06T21:41:04.830Z,4.01
2022-12-06T21:43:31.330Z,3.97
2022-12-06T21:46:06.451Z,3.92
2022-12-06T21:48:34.500Z,3.89
2022-12-06T21:51:05.739Z,3.88
2022-12-06T21:53:32.703Z,3.94
2022-12-06T21:55:59.557Z,3.88
2022-12-06T21:58:26.305Z,3.89
2022-12-06T22:00:52.668Z,3.98
2022-12-06T22:03:22.996Z,3.94
2022-12-06T22:05:49.920Z,3.81
2022-12-06T22:08:16.394Z,3.84
2022-12-06T22:10:42.895Z,3.78
2022-12-06T22:13:09.739Z,3.75
2022-12-06T22:15:36.512Z,3.74
2022-12-06T22:18:03.255Z,3.74
2022-12-06T22:20:29.694Z,3.79
2022-12-06T22:22:56.250Z,3.76
2022-12-06T22:25:22.691Z,3.78
2022-12-06T22:27:51.664Z,3.72
2022-12-06T22:30:18.021Z,3.72
2022-12-06T22:32:44.427Z,3.65
2022-12-06T22:35:10.803Z,3.59
2022-12-06T22:37:37.205Z,3.49
2022-12-06T22:40:04.114Z,3.47
2022-12-06T22:42:34.259Z,3.40
2022-12-06T22:45:00.681Z,3.34
2022-12-06T22:47:27.157Z,3.31
2022-12-06T22:49:53.552Z,3.26
2022-12-06T22:52:20.009Z,3.19
2022-12-06T22:54:46.681Z,3.21
2022-12-06T22:57:14.160Z,3.20
2022-12-06T22:59:40.532Z,3.14
2022-12-06T23:02:07.008Z,3.14
2022-12-06T23:04:33.663Z,3.10
2022-12-06T23:07:00.161Z,3.12
2022-12-06T23:09:26.645Z,3.11
2022-12-06T23:11:53.049Z,3.11
2022-12-06T23:14:19.441Z,3.24
2022-12-06T23:16:46.147Z,3.34
2022-12-06T23:19:12.852Z,3.40
2022-12-06T23:21:40.802Z,3.46
2022-12-06T23:24:11.003Z,3.45
2022-12-06T23:26:43.438Z,3.44
2022-12-06T23:29:10.170Z,3.45
2022-12-06T23:31:39.478Z,3.49
2022-12-06T23:34:17.623Z,3.48
2022-12-06T23:36:44.568Z,3.48
2022-12-06T23:39:11.860Z,3.51
2022-12-06T23:41:38.696Z,3.56
2022-12-06T23:44:06.579Z,3.60
2022-12-06T23:46:36.131Z,3.65
2022-12-06T23:49:03.771Z,3.69
2022-12-06T23:51:37.101Z,3.71
2022-12-06T23:54:05.886Z,3.72
2022-12-06T23:56:34.392Z,3.69
2022-12-06T23:59:02.740Z,3.71
